Time;durP1;ratioP1;P1;durP2;ratioP2;P2;SDS_P1;SDS_P2;PMS_P1;PMS_P2;Temp;Humidity;BMP_temperature;BMP_pressure;BME280_temperature;BME280_humidity;BME280_pressure;Samples;Min_cycle;Max_cycle;Signal;HPM_P1;HPM_P2
2022/12/07 00:00:12;;;;;;;10.87;9.93;;;7.70;99.90;;;;;;10302071;28;20211;-81
2022/12/07 00:05:14;;;;;;;10.00;9.20;;;7.70;99.90;;;;;;10299531;28;20196;-81
2022/12/07 00:10:18;;;;;;;11.00;10.10;;;7.70;99.90;;;;;;10294766;28;20700;-80
2022/12/07 00:15:20;;;;;;;10.30;9.47;;;7.80;99.90;;;;;;10252213;28;20295;-80
2022/12/07 00:20:22;;;;;;;10.57;9.77;;;7.80;99.90;;;;;;10266304;28;20658;-81
2022/12/07 00:25:25;;;;;;;11.00;10.07;;;7.80;99.90;;;;;;10283130;28;20220;-80
2022/12/07 00:30:27;;;;;;;10.10;9.20;;;7.80;99.90;;;;;;10292296;28;20219;-79
2022/12/07 00:35:29;;;;;;;11.63;10.53;;;7.80;99.90;;;;;;10291730;28;20283;-80
2022/12/07 00:40:33;;;;;;;10.90;10.00;;;7.80;99.90;;;;;;10290579;28;20223;-79
2022/12/07 00:45:35;;;;;;;11.30;10.40;;;7.80;99.90;;;;;;10304373;28;20207;-80
2022/12/07 00:50:37;;;;;;;11.30;10.40;;;7.80;99.90;;;;;;10290703;28;20461;-80
2022/12/07 00:55:40;;;;;;;11.60;10.60;;;7.80;99.90;;;;;;10289736;28;20226;-80
2022/12/07 01:00:43;;;;;;;12.17;11.10;;;7.70;99.90;;;;;;10290643;28;20219;-79
2022/12/07 01:05:52;;;;;;;12.67;11.57;;;7.80;99.90;;;;;;10290422;28;20202;-80
2022/12/07 01:11:01;;;;;;;13.13;11.93;;;7.70;99.90;;;;;;10316439;28;20226;-81
2022/12/07 01:16:07;;;;;;;13.57;12.30;;;7.70;99.90;;;;;;10311127;28;20282;-81
2022/12/07 01:21:12;;;;;;;13.10;11.90;;;7.70;99.90;;;;;;10332592;28;20216;-81
2022/12/07 01:26:18;;;;;;;14.33;12.97;;;7.70;99.90;;;;;;10294977;28;20310;-81
2022/12/07 01:31:23;;;;;;;12.93;11.83;;;7.60;99.90;;;;;;10322893;28;20595;-81
2022/12/07 01:36:26;;;;;;;12.57;11.47;;;7.70;99.90;;;;;;10302379;28;20196;-80
2022/12/07 01:41:32;;;;;;;13.10;11.90;;;7.60;99.90;;;;;;10301818;28;20250;-80
2022/12/07 01:46:34;;;;;;;12.00;11.00;;;7.60;99.90;;;;;;10304732;28;20192;-80
2022/12/07 01:51:39;;;;;;;12.37;11.27;;;7.60;99.90;;;;;;10306351;28;20533;-80
2022/12/07 01:56:49;;;;;;;13.20;12.03;;;7.60;99.90;;;;;;10305938;28;20509;-79
2022/12/07 02:01:51;;;;;;;13.37;12.17;;;7.60;99.90;;;;;;10292136;28;20192;-80
2022/12/07 02:06:55;;;;;;;12.80;11.70;;;7.60;99.90;;;;;;10293344;28;20228;-79
2022/12/07 02:11:58;;;;;;;13.27;12.20;;;7.60;99.90;;;;;;10295426;28;20228;-80
2022/12/07 02:17:11;;;;;;;12.87;11.77;;;7.60;99.90;;;;;;10296304;28;20214;-80
2022/12/07 02:22:37;;;;;;;12.57;11.37;;;7.60;99.90;;;;;;10301376;28;20200;-80
2022/12/07 02:27:47;;;;;;;12.67;11.57;;;7.60;99.90;;;;;;10318756;28;20230;-80
2022/12/07 02:32:57;;;;;;;12.90;11.80;;;7.60;99.90;;;;;;10303137;28;20223;-80
2022/12/07 02:38:05;;;;;;;13.40;12.30;;;7.60;99.90;;;;;;10320778;28;20231;-81
2022/12/07 02:43:13;;;;;;;13.23;12.07;;;7.60;99.90;;;;;;10299576;28;20259;-79
2022/12/07 02:48:19;;;;;;;10.00;9.20;;;7.60;99.90;;;;;;10318042;28;20246;-80
2022/12/07 02:53:32;;;;;;;13.60;12.40;;;7.60;99.90;;;;;;10306773;28;20254;-80
2022/12/07 02:58:44;;;;;;;14.90;13.50;;;7.50;99.90;;;;;;10310673;28;20219;-79
2022/12/07 03:03:55;;;;;;;14.00;12.67;;;7.50;99.90;;;;;;10320110;28;20215;-80
2022/12/07 03:09:04;;;;;;;13.30;12.03;;;7.50;99.90;;;;;;10303548;28;20251;-80
2022/12/07 03:14:14;;;;;;;11.83;10.83;;;7.40;99.90;;;;;;10324536;28;20327;-81
2022/12/07 03:19:21;;;;;;;12.73;11.67;;;7.40;99.90;;;;;;10303644;28;20226;-80
2022/12/07 03:24:28;;;;;;;10.90;10.00;;;7.30;99.90;;;;;;10296754;28;20279;-80
2022/12/07 03:29:34;;;;;;;12.07;11.07;;;7.30;99.90;;;;;;10309116;28;20271;-79
2022/12/07 03:34:45;;;;;;;12.03;11.00;;;7.30;99.90;;;;;;10272935;28;20284;-79
2022/12/07 03:39:57;;;;;;;12.10;10.90;;;7.20;99.90;;;;;;10293957;28;20803;-81
2022/12/07 03:45:00;;;;;;;12.70;11.60;;;7.20;99.90;;;;;;10301732;28;20287;-81
2022/12/07 03:50:12;;;;;;;12.13;11.17;;;7.20;99.90;;;;;;10299657;28;20216;-81
2022/12/07 03:55:20;;;;;;;13.13;11.93;;;7.20;99.90;;;;;;10298820;28;20242;-81
2022/12/07 04:00:23;;;;;;;13.50;12.30;;;7.20;99.90;;;;;;10272890;28;20248;-81
2022/12/07 04:05:26;;;;;;;13.30;12.13;;;7.10;99.90;;;;;;10294852;28;20635;-81
2022/12/07 04:10:29;;;;;;;13.37;12.17;;;7.10;99.90;;;;;;10301425;28;20303;-81
2022/12/07 04:15:31;;;;;;;12.57;11.40;;;7.10;99.90;;;;;;10316082;28;20254;-81
2022/12/07 04:20:34;;;;;;;12.70;11.50;;;7.10;99.90;;;;;;10278878;28;20244;-80
2022/12/07 04:25:36;;;;;;;11.97;10.80;;;7.00;99.90;;;;;;10306623;28;20227;-80
2022/12/07 04:30:38;;;;;;;12.20;11.10;;;7.00;99.90;;;;;;10307968;28;20290;-80
2022/12/07 04:35:43;;;;;;;12.30;11.10;;;6.90;99.90;;;;;;10300512;28;20275;-80
2022/12/07 04:40:45;;;;;;;12.50;11.33;;;6.90;99.90;;;;;;10299529;28;20306;-80
2022/12/07 04:45:48;;;;;;;10.17;9.37;;;6.80;99.90;;;;;;10316177;28;20200;-81
2022/12/07 04:50:51;;;;;;;9.30;8.50;;;6.70;99.90;;;;;;10304928;28;20226;-78
2022/12/07 04:55:53;;;;;;;7.80;7.20;;;6.70;99.90;;;;;;10312382;28;20200;-81
2022/12/07 05:00:56;;;;;;;8.73;8.03;;;6.70;99.90;;;;;;10300837;28;20218;-80
2022/12/07 05:05:59;;;;;;;7.40;6.83;;;6.70;99.90;;;;;;10299256;28;20204;-81
2022/12/07 05:11:02;;;;;;;6.07;5.60;;;6.60;99.90;;;;;;10296319;28;20251;-79
2022/12/07 05:16:04;;;;;;;7.07;6.57;;;6.60;99.90;;;;;;10275858;28;20200;-79
2022/12/07 05:21:08;;;;;;;7.93;6.80;;;6.60;99.90;;;;;;10299288;28;20216;-81
2022/12/07 05:26:10;;;;;;;7.70;7.10;;;6.70;99.90;;;;;;10275224;28;20219;-80
2022/12/07 05:31:12;;;;;;;6.60;6.10;;;6.70;99.90;;;;;;10293902;28;20278;-81
2022/12/07 05:36:15;;;;;;;8.57;7.97;;;6.80;99.90;;;;;;10299202;28;20227;-81
2022/12/07 05:46:39;;;;;;;9.97;9.07;;;6.70;99.90;;;;;;10298416;28;20191;-80
2022/12/07 05:51:42;;;;;;;10.67;9.77;;;6.70;99.90;;;;;;10299193;28;20639;-81
2022/12/07 05:56:44;;;;;;;10.43;9.50;;;6.70;99.90;;;;;;10301893;28;20193;-81
2022/12/07 06:01:46;;;;;;;10.13;9.33;;;6.60;99.90;;;;;;10305683;28;20203;-80
2022/12/07 06:06:50;;;;;;;11.43;10.33;;;6.60;99.90;;;;;;10300276;28;20286;-80
2022/12/07 06:17:12;;;;;;;7.60;7.00;;;6.60;99.90;;;;;;10303289;28;20219;-79
2022/12/07 06:22:17;;;;;;;9.00;8.30;;;6.60;99.90;;;;;;10318448;28;20204;-78
2022/12/07 06:27:19;;;;;;;9.57;8.57;;;6.40;99.90;;;;;;10302816;28;20246;-80
2022/12/07 06:32:21;;;;;;;9.63;8.73;;;6.40;99.90;;;;;;10303283;28;20294;-79
2022/12/07 06:37:25;;;;;;;9.10;8.20;;;6.30;99.90;;;;;;10301426;28;20255;-79
2022/12/07 06:42:27;;;;;;;11.37;10.27;;;6.30;99.90;;;;;;10320784;28;20200;-80
2022/12/07 06:47:29;;;;;;;11.00;9.90;;;6.30;99.90;;;;;;10310248;28;20215;-78
2022/12/07 06:52:32;;;;;;;10.63;9.70;;;6.20;99.90;;;;;;10298235;28;20306;-80
2022/12/07 06:57:35;;;;;;;9.90;9.00;;;6.10;99.90;;;;;;10296890;28;20220;-79
2022/12/07 07:02:37;;;;;;;11.50;10.40;;;6.00;99.90;;;;;;10305009;28;20564;-78
2022/12/07 07:07:40;;;;;;;10.57;9.70;;;6.00;99.90;;;;;;10298869;28;20640;-79
2022/12/07 07:12:42;;;;;;;8.47;7.77;;;6.10;99.90;;;;;;10269653;28;20223;-80
2022/12/07 07:17:44;;;;;;;9.33;8.53;;;6.20;99.90;;;;;;10269493;28;20604;-79
2022/12/07 07:22:48;;;;;;;7.83;7.13;;;6.20;99.90;;;;;;10310390;28;20687;-80
2022/12/07 07:27:50;;;;;;;8.70;8.00;;;6.30;99.90;;;;;;10307867;28;20224;-79
2022/12/07 07:32:56;;;;;;;14.50;10.63;;;6.40;99.90;;;;;;10295631;28;20216;-79
2022/12/07 07:38:00;;;;;;;7.83;7.13;;;6.50;99.90;;;;;;10295120;28;20220;-79
2022/12/07 07:43:02;;;;;;;7.63;7.03;;;6.50;99.90;;;;;;10274259;28;20793;-79
2022/12/07 07:48:04;;;;;;;9.13;8.23;;;6.60;99.90;;;;;;10280481;28;20299;-80
2022/12/07 07:53:08;;;;;;;8.70;7.87;;;6.70;99.90;;;;;;10293326;28;20266;-79
2022/12/07 07:58:10;;;;;;;8.00;7.27;;;6.70;99.90;;;;;;10290945;28;20596;-80
2022/12/07 08:03:12;;;;;;;8.60;7.80;;;6.80;99.90;;;;;;10292886;28;20202;-80
2022/12/07 08:08:15;;;;;;;8.00;7.30;;;6.80;99.90;;;;;;10292061;28;20295;-80
2022/12/07 08:13:18;;;;;;;8.47;7.67;;;6.90;99.90;;;;;;10266605;28;20229;-80
2022/12/07 08:18:20;;;;;;;8.40;7.70;;;6.90;99.90;;;;;;10303938;28;20586;-79
2022/12/07 08:23:23;;;;;;;10.47;7.73;;;7.00;99.90;;;;;;10292871;28;20214;-80
2022/12/07 08:28:25;;;;;;;8.10;7.40;;;7.00;99.90;;;;;;10253182;28;20325;-78
2022/12/07 08:33:27;;;;;;;8.93;8.13;;;7.10;99.90;;;;;;10277304;28;20299;-79
2022/12/07 08:38:31;;;;;;;11.53;8.67;;;7.10;99.90;;;;;;10292290;28;20220;-79
2022/12/07 08:43:33;;;;;;;8.40;7.67;;;7.20;99.90;;;;;;10301199;28;20211;-79
2022/12/07 08:48:39;;;;;;;8.77;7.93;;;7.20;99.90;;;;;;10294446;28;20224;-79
2022/12/07 08:53:44;;;;;;;8.50;7.77;;;7.30;99.90;;;;;;10295229;28;20546;-78
2022/12/07 08:58:46;;;;;;;8.33;7.63;;;7.40;99.90;;;;;;10297915;28;20235;-80
2022/12/07 09:03:48;;;;;;;7.83;7.13;;;7.50;99.90;;;;;;10292471;28;20200;-79
2022/12/07 09:08:55;;;;;;;8.87;7.67;;;7.60;99.90;;;;;;10289991;28;20258;-79
2022/12/07 09:13:57;;;;;;;8.10;7.40;;;7.60;99.90;;;;;;10288820;28;20254;-80
2022/12/07 09:18:59;;;;;;;9.50;8.60;;;7.70;99.90;;;;;;10295573;28;20684;-79
2022/12/07 09:24:03;;;;;;;7.60;7.00;;;7.70;99.90;;;;;;10290517;28;20235;-79
2022/12/07 09:29:05;;;;;;;7.43;6.83;;;7.80;99.90;;;;;;10288829;28;20227;-78
2022/12/07 09:34:07;;;;;;;7.87;7.10;;;7.80;99.90;;;;;;10296454;28;20278;-79
2022/12/07 09:39:11;;;;;;;6.97;6.43;;;7.90;99.90;;;;;;10280939;28;20219;-78
2022/12/07 09:44:17;;;;;;;6.73;6.23;;;7.90;99.90;;;;;;10298850;28;20199;-78
2022/12/07 09:49:21;;;;;;;6.70;6.20;;;7.90;99.90;;;;;;10300401;28;20307;-79
2022/12/07 09:54:25;;;;;;;7.30;6.70;;;7.90;99.90;;;;;;10301127;28;20228;-80
2022/12/07 09:59:27;;;;;;;6.30;5.77;;;8.00;99.90;;;;;;10298065;28;20306;-79
2022/12/07 10:04:29;;;;;;;7.30;6.70;;;8.20;99.90;;;;;;10296430;28;20630;-80
2022/12/07 10:09:35;;;;;;;5.40;5.00;;;8.20;99.90;;;;;;10296083;28;20769;-79
2022/12/07 10:14:39;;;;;;;6.40;5.80;;;8.40;99.90;;;;;;10297719;28;20661;-79
2022/12/07 10:19:41;;;;;;;6.17;5.50;;;8.50;99.90;;;;;;10298742;28;20250;-81
2022/12/07 10:24:48;;;;;;;5.17;4.30;;;8.50;99.90;;;;;;10318880;28;20621;-81
2022/12/07 10:29:52;;;;;;;7.00;6.40;;;8.50;99.90;;;;;;10301007;28;20275;-81
2022/12/07 10:35:20;;;;;;;5.50;5.10;;;8.50;99.90;;;;;;10299237;28;20223;-81
2022/12/07 10:40:30;;;;;;;4.90;4.60;;;8.60;99.90;;;;;;10306181;28;20220;-81
2022/12/07 10:45:34;;;;;;;4.97;4.67;;;8.60;99.90;;;;;;10301772;28;20199;-80
2022/12/07 10:50:55;;;;;;;5.33;4.93;;;8.70;99.90;;;;;;10301763;28;20760;-81
2022/12/07 10:56:32;;;;;;;5.53;5.13;;;8.70;99.90;;;;;;10304069;28;20227;-81
2022/12/07 11:01:39;;;;;;;5.17;4.77;;;8.70;99.90;;;;;;10299777;28;20216;-78
2022/12/07 11:06:50;;;;;;;5.23;4.83;;;8.60;99.90;;;;;;10304914;28;20609;-81
2022/12/07 11:12:00;;;;;;;5.77;5.37;;;8.60;99.90;;;;;;10273759;28;20250;-79
2022/12/07 11:17:08;;;;;;;6.40;5.90;;;8.50;99.90;;;;;;10290932;28;20204;-79
2022/12/07 11:22:17;;;;;;;5.23;4.83;;;8.50;99.90;;;;;;10294111;28;20203;-79
2022/12/07 11:27:27;;;;;;;5.97;5.47;;;8.50;99.90;;;;;;10294011;28;20269;-80
2022/12/07 11:32:45;;;;;;;5.83;5.33;;;8.40;99.90;;;;;;10292649;28;20558;-80
2022/12/07 11:37:48;;;;;;;5.73;5.30;;;8.40;99.90;;;;;;10296076;28;20302;-80
2022/12/07 11:42:56;;;;;;;6.13;5.53;;;8.40;99.90;;;;;;10289555;28;20192;-79
2022/12/07 11:48:02;;;;;;;5.83;5.33;;;8.40;99.90;;;;;;10295725;28;20226;-79
2022/12/07 11:53:10;;;;;;;5.97;5.43;;;8.40;99.90;;;;;;10293152;28;20212;-78
2022/12/07 11:58:36;;;;;;;5.23;4.73;;;8.40;99.90;;;;;;10293881;28;20216;-80
2022/12/07 12:03:43;;;;;;;4.23;3.70;;;8.40;99.90;;;;;;10302012;28;20192;-79
2022/12/07 12:08:51;;;;;;;5.83;5.43;;;8.40;99.90;;;;;;10292892;28;20673;-80
2022/12/07 12:14:14;;;;;;;6.10;5.63;;;8.40;99.90;;;;;;10293240;28;20219;-80
2022/12/07 12:19:25;;;;;;;6.53;5.93;;;8.40;99.90;;;;;;10293321;28;20307;-81
2022/12/07 12:24:36;;;;;;;7.60;7.00;;;8.40;99.90;;;;;;10295111;28;20266;-80
2022/12/07 12:29:43;;;;;;;8.43;7.73;;;8.40;99.90;;;;;;10304209;28;20291;-80
2022/12/07 12:35:01;;;;;;;7.87;7.17;;;8.40;99.90;;;;;;10294796;28;20243;-78
2022/12/07 12:40:41;;;;;;;8.57;7.87;;;8.40;99.90;;;;;;10291271;28;20623;-79
2022/12/07 12:45:45;;;;;;;8.63;7.83;;;8.40;99.90;;;;;;10292085;28;20196;-79
2022/12/07 12:50:48;;;;;;;8.53;7.83;;;8.40;99.90;;;;;;10293243;28;20224;-80
2022/12/07 12:56:26;;;;;;;8.03;7.30;;;8.40;99.90;;;;;;10293903;28;20724;-80
2022/12/07 13:01:45;;;;;;;8.70;7.90;;;8.50;99.90;;;;;;10292739;28;20219;-80
2022/12/07 13:06:47;;;;;;;8.57;7.73;;;8.40;99.90;;;;;;10295662;28;20598;-79
2022/12/07 13:11:51;;;;;;;6.83;6.33;;;8.50;99.90;;;;;;10318616;28;20211;-80
2022/12/07 13:16:55;;;;;;;7.43;6.73;;;8.40;99.90;;;;;;10303303;28;20196;-80
2022/12/07 13:21:57;;;;;;;7.80;7.20;;;8.50;99.90;;;;;;10302033;28;20232;-81
2022/12/07 13:26:59;;;;;;;6.97;6.37;;;8.50;99.90;;;;;;10318764;28;20227;-81
2022/12/07 13:32:02;;;;;;;7.47;6.77;;;8.50;99.90;;;;;;10285938;28;20239;-81
2022/12/07 13:37:13;;;;;;;6.07;5.67;;;8.50;99.90;;;;;;10306476;28;20275;-81
2022/12/07 13:42:25;;;;;;;7.47;6.87;;;8.50;99.90;;;;;;10293333;28;20196;-81
2022/12/07 13:47:36;;;;;;;7.50;6.90;;;8.50;99.90;;;;;;10307464;28;20686;-81
2022/12/07 13:52:45;;;;;;;6.23;5.83;;;8.50;99.90;;;;;;10303675;28;20214;-79
2022/12/07 13:57:50;;;;;;;6.20;5.70;;;8.40;99.90;;;;;;10302584;28;20723;-81
2022/12/07 14:02:59;;;;;;;6.57;6.07;;;8.40;99.90;;;;;;10311841;28;20222;-81
2022/12/07 14:08:03;;;;;;;7.00;6.30;;;8.40;99.90;;;;;;10302072;28;20224;-81
2022/12/07 14:13:29;;;;;;;7.10;6.50;;;8.40;99.90;;;;;;10300549;28;20316;-81
2022/12/07 14:18:41;;;;;;;6.27;5.73;;;8.50;99.90;;;;;;10298583;28;20226;-81
2022/12/07 14:23:43;;;;;;;6.60;6.10;;;8.40;99.90;;;;;;10299092;28;20200;-81
2022/12/07 14:28:46;;;;;;;6.40;5.90;;;8.40;99.90;;;;;;10300211;28;20231;-81
2022/12/07 14:33:49;;;;;;;5.70;5.30;;;8.40;99.90;;;;;;10300317;28;20311;-81
2022/12/07 14:38:54;;;;;;;6.70;6.20;;;8.40;99.90;;;;;;10299999;28;20232;-81
2022/12/07 14:43:56;;;;;;;6.80;6.20;;;8.30;99.90;;;;;;10311309;28;20192;-80
2022/12/07 14:48:59;;;;;;;7.73;6.90;;;8.30;99.90;;;;;;10306423;28;20690;-80
2022/12/07 14:54:01;;;;;;;7.73;7.13;;;8.30;99.90;;;;;;10302732;28;20251;-81
2022/12/07 14:59:03;;;;;;;7.93;7.33;;;8.30;99.90;;;;;;10302774;28;20250;-82
2022/12/07 15:04:07;;;;;;;8.07;7.47;;;8.30;99.90;;;;;;10308753;28;20268;-81
2022/12/07 15:09:16;;;;;;;8.30;7.60;;;8.20;99.90;;;;;;10311746;28;20231;-80
2022/12/07 15:14:19;;;;;;;7.90;7.30;;;8.20;99.90;;;;;;10309194;28;20224;-81
2022/12/07 15:19:25;;;;;;;7.97;7.27;;;8.10;99.90;;;;;;10280676;28;20696;-81
2022/12/07 15:24:27;;;;;;;9.07;8.37;;;8.10;99.90;;;;;;10308159;28;20264;-81
2022/12/07 15:29:30;;;;;;;10.33;9.37;;;8.10;99.90;;;;;;10302009;28;20235;-81
2022/12/07 15:34:33;;;;;;;9.20;8.30;;;8.10;99.90;;;;;;10318368;28;20247;-81
2022/12/07 15:39:36;;;;;;;8.37;7.67;;;8.10;99.90;;;;;;10307436;28;20215;-81
2022/12/07 15:49:59;;;;;;;8.13;7.53;;;8.10;99.90;;;;;;10298258;28;20207;-81
2022/12/07 15:55:03;;;;;;;8.50;7.77;;;8.10;99.90;;;;;;10299589;28;20661;-79
2022/12/07 16:00:06;;;;;;;7.23;6.60;;;8.00;99.90;;;;;;10296797;28;20612;-81
2022/12/07 16:05:09;;;;;;;8.30;7.60;;;8.00;99.90;;;;;;10297616;28;20206;-81
2022/12/07 16:10:11;;;;;;;8.83;8.10;;;7.90;99.90;;;;;;10300455;28;20220;-81
2022/12/07 16:15:13;;;;;;;9.53;8.83;;;7.90;99.90;;;;;;10301877;28;20215;-81
2022/12/07 16:20:17;;;;;;;9.10;8.20;;;7.90;99.90;;;;;;10286541;28;20261;-81
2022/12/07 16:25:20;;;;;;;8.87;7.97;;;7.80;99.90;;;;;;10313775;28;20234;-81
2022/12/07 16:30:22;;;;;;;10.03;9.03;;;7.80;99.90;;;;;;10296188;28;20243;-79
2022/12/07 16:35:26;;;;;;;11.00;10.00;;;7.70;99.90;;;;;;10296372;28;20713;-80
2022/12/07 16:40:28;;;;;;;10.03;9.13;;;7.60;99.90;;;;;;10309598;28;20218;-81
2022/12/07 16:45:30;;;;;;;12.10;11.00;;;7.60;99.90;;;;;;10317079;28;20195;-81
2022/12/07 16:50:33;;;;;;;10.13;9.20;;;7.50;99.90;;;;;;10307923;28;20604;-80
2022/12/07 16:55:37;;;;;;;12.27;11.17;;;7.50;99.90;;;;;;10331560;28;20261;-81
2022/12/07 17:00:40;;;;;;;13.17;11.97;;;7.40;99.90;;;;;;10398177;23;20242;-82
2022/12/07 17:05:45;;;;;;;12.20;11.00;;;7.40;99.90;;;;;;10362950;28;20203;-82
2022/12/07 17:10:47;;;;;;;12.50;11.23;;;7.40;99.90;;;;;;10352049;28;20222;-82
2022/12/07 17:15:57;;;;;;;14.80;13.30;;;7.30;99.90;;;;;;10349038;28;20218;-80
2022/12/07 17:27:14;;;;;;;13.40;12.20;;;7.20;99.90;;;;;;10280763;28;20215;-82
2022/12/07 17:32:16;;;;;;;11.40;10.30;;;7.10;99.90;;;;;;10245810;28;20725;-81
2022/12/07 17:38:15;;;;;;;11.03;10.00;;;7.00;99.90;;;;;;10409036;22;20692;-81
2022/12/07 17:43:40;;;;;;;13.00;11.80;;;7.00;99.90;;;;;;10299947;28;20199;-82
2022/12/07 17:48:43;;;;;;;13.13;11.93;;;7.00;99.90;;;;;;10295312;28;20315;-82
2022/12/07 17:53:48;;;;;;;11.60;10.40;;;7.00;99.90;;;;;;10272252;28;20216;-83
2022/12/07 17:58:51;;;;;;;12.13;10.93;;;7.10;99.90;;;;;;10279415;28;20229;-82
2022/12/07 18:03:56;;;;;;;11.90;10.40;;;7.10;99.90;;;;;;10281128;28;20732;-84
2022/12/07 18:08:59;;;;;;;13.50;12.20;;;7.00;99.90;;;;;;10306005;28;20219;-84
2022/12/07 18:14:09;;;;;;;11.03;10.00;;;7.00;99.90;;;;;;10295409;28;20235;-84
2022/12/07 18:19:17;;;;;;;13.80;12.50;;;7.00;99.90;;;;;;10319120;28;20220;-84
2022/12/07 18:24:19;;;;;;;12.90;11.07;;;7.00;99.90;;;;;;10320252;28;20227;-85
2022/12/07 18:29:23;;;;;;;12.87;11.43;;;7.00;99.90;;;;;;10311487;28;20226;-81
2022/12/07 18:34:28;;;;;;;11.53;10.53;;;7.00;99.90;;;;;;10280391;28;20211;-80
2022/12/07 18:39:32;;;;;;;12.60;11.40;;;7.00;99.90;;;;;;10282926;28;20751;-82
2022/12/07 18:44:36;;;;;;;13.80;12.50;;;7.00;99.90;;;;;;10283010;28;20219;-83
2022/12/07 18:49:38;;;;;;;12.93;11.67;;;7.00;99.90;;;;;;10287158;28;20253;-85
2022/12/07 18:54:40;;;;;;;12.40;11.20;;;7.10;99.90;;;;;;10274200;28;20470;-82
2022/12/07 18:59:48;;;;;;;11.30;10.30;;;7.10;99.90;;;;;;10257325;28;20231;-83
2022/12/07 19:04:52;;;;;;;14.17;11.27;;;7.10;99.90;;;;;;10269154;28;20231;-81
2022/12/07 19:09:55;;;;;;;11.03;10.03;;;7.20;99.90;;;;;;10237735;28;20555;-82
2022/12/07 19:14:58;;;;;;;12.00;11.00;;;7.20;99.90;;;;;;10268051;28;20308;-81
2022/12/07 19:20:02;;;;;;;10.73;9.80;;;7.20;99.90;;;;;;10267473;28;20504;-83
2022/12/07 19:25:06;;;;;;;11.20;10.10;;;7.20;99.90;;;;;;10278020;28;20223;-80
2022/12/07 19:30:14;;;;;;;9.60;8.70;;;7.20;99.90;;;;;;10296931;28;20232;-81
2022/12/07 19:35:16;;;;;;;10.80;9.90;;;7.20;99.90;;;;;;10297818;28;20230;-80
2022/12/07 19:40:19;;;;;;;10.87;9.77;;;7.30;99.90;;;;;;10288968;28;20243;-81
2022/12/07 19:45:27;;;;;;;10.50;9.50;;;7.20;99.90;;;;;;10286213;28;20196;-82
2022/12/07 19:50:31;;;;;;;11.33;10.23;;;7.20;99.90;;;;;;10267944;28;20220;-85
2022/12/07 19:55:39;;;;;;;10.90;9.90;;;7.20;99.90;;;;;;10283541;28;20227;-85
2022/12/07 20:00:51;;;;;;;10.50;9.50;;;7.20;99.90;;;;;;10272684;28;20219;-85
2022/12/07 20:06:12;;;;;;;10.10;9.20;;;7.20;99.90;;;;;;10284131;28;20204;-84
2022/12/07 20:16:44;;;;;;;9.87;8.97;;;7.20;99.90;;;;;;10264405;28;20243;-83
2022/12/07 20:28:15;;;;;;;10.13;9.00;;;7.10;99.90;;;;;;10300027;28;20211;-84
2022/12/07 20:33:59;;;;;;;10.40;9.40;;;7.10;99.90;;;;;;10314516;28;20219;-83
2022/12/07 20:39:54;;;;;;;9.57;8.73;;;7.00;99.90;;;;;;10301240;28;20219;-84
2022/12/07 20:45:20;;;;;;;12.20;11.20;;;7.00;99.90;;;;;;10295019;28;20200;-81
2022/12/07 20:50:30;;;;;;;10.27;9.47;;;6.90;99.90;;;;;;10274452;28;20218;-83
2022/12/07 20:55:54;;;;;;;;;;;;;;;;;;;;;
2022/12/07 21:01:43;;;;;;;10.13;9.33;;;6.80;99.90;;;;;;10317677;28;20219;-86
2022/12/07 21:07:03;;;;;;;11.00;9.30;;;6.70;99.90;;;;;;10323494;28;20210;-87
2022/12/07 21:12:09;;;;;;;10.20;9.20;;;6.70;99.90;;;;;;10288633;28;20211;-84
2022/12/07 21:17:16;;;;;;;10.53;9.43;;;6.60;99.90;;;;;;10316867;28;20219;-87
2022/12/07 21:22:34;;;;;;;10.63;9.37;;;6.50;99.90;;;;;;10350304;28;20245;-86
2022/12/07 21:57:03;;;;;;;12.17;11.13;;;6.50;99.90;;;;;;10667073;27;20264;-82
2022/12/07 22:02:05;;;;;;;10.93;9.97;;;6.50;99.90;;;;;;10685692;27;20222;-80
2022/12/07 22:07:37;;;;;;;10.73;9.80;;;6.50;99.90;;;;;;10689084;27;20220;-86
2022/12/07 22:25:59;;;;;;;11.40;10.27;;;6.50;99.90;;;;;;10678157;27;20230;-82
2022/12/07 22:49:23;;;;;;;13.10;11.80;;;6.10;99.90;;;;;;10585512;22;20342;-82
2022/12/07 22:55:10;;;;;;;12.23;11.13;;;6.00;99.90;;;;;;10552442;28;20192;-81
2022/12/07 23:17:28;;;;;;;11.80;10.60;;;5.90;99.90;;;;;;10527692;28;20220;-84
2022/12/07 23:29:15;;;;;;;11.37;10.33;;;5.70;99.90;;;;;;10542454;28;20286;-86
2022/12/07 23:34:23;;;;;;;11.23;10.13;;;5.70;99.90;;;;;;10516532;28;20253;-85
